createdAt,value
2023-01-05T00:00:02.156Z,35.80
2023-01-05T00:02:40.203Z,32.17
2023-01-05T00:05:08.172Z,31.85
2023-01-05T00:07:35.756Z,32.55
2023-01-05T00:10:03.597Z,32.85
2023-01-05T00:12:49.462Z,33.38
2023-01-05T00:18:21.415Z,34.22
2023-01-05T00:21:07.921Z,34.78
2023-01-05T00:23:35.619Z,34.22
2023-01-05T00:26:03.203Z,35.03
2023-01-05T00:28:30.781Z,31.60
2023-01-05T00:30:58.316Z,34.65
2023-01-05T00:33:25.854Z,32.55
2023-01-05T00:35:53.457Z,34.67
2023-01-05T00:38:21.161Z,35.40
2023-01-05T00:40:49.932Z,36.85
2023-01-05T00:43:17.495Z,38.92
2023-01-05T00:45:45.204Z,40.90
2023-01-05T00:48:12.890Z,37.83
2023-01-05T00:50:40.447Z,37.22
2023-01-05T00:53:08.057Z,35.80
2023-01-05T00:55:35.668Z,40.65
2023-01-05T00:58:03.222Z,39.00
2023-01-05T01:00:30.850Z,37.30
2023-01-05T01:02:58.429Z,37.85
2023-01-05T01:05:26.005Z,38.10
2023-01-05T01:07:53.704Z,38.80
2023-01-05T01:10:21.313Z,41.08
2023-01-05T01:12:48.820Z,40.30
2023-01-05T01:15:16.469Z,35.95
2023-01-05T01:17:44.128Z,35.90
2023-01-05T01:20:11.751Z,36.05
2023-01-05T01:22:39.351Z,33.90
2023-01-05T01:25:08.788Z,36.33
2023-01-05T01:27:36.450Z,37.35
2023-01-05T01:30:04.359Z,36.58
2023-01-05T01:32:32.113Z,36.88
2023-01-05T01:34:59.660Z,38.40
2023-01-05T01:37:27.536Z,35.33
2023-01-05T01:39:57.010Z,38.17
2023-01-05T01:42:25.083Z,37.88
2023-01-05T01:44:55.461Z,35.10
2023-01-05T01:47:38.635Z,36.83
2023-01-05T01:50:22.382Z,37.22
2023-01-05T01:52:52.631Z,37.05
2023-01-05T01:55:21.006Z,36.97
2023-01-05T01:57:50.733Z,36.55
2023-01-05T02:00:18.997Z,36.53
2023-01-05T02:02:49.223Z,37.88
2023-01-05T02:05:26.486Z,34.90
2023-01-05T02:07:54.442Z,34.58
2023-01-05T02:10:51.071Z,37.92
2023-01-05T02:13:32.842Z,37.25
2023-01-05T02:16:24.200Z,34.17
2023-01-05T02:19:28.524Z,35.15
2023-01-05T02:22:20.695Z,35.80
2023-01-05T02:25:00.221Z,34.67
2023-01-05T02:27:51.559Z,34.78
2023-01-05T02:30:59.748Z,36.72
2023-01-05T02:33:56.932Z,36.35
2023-01-05T02:36:54.832Z,33.33
2023-01-05T02:39:26.627Z,35.40
2023-01-05T02:42:17.890Z,34.80
2023-01-05T02:44:45.653Z,36.08
2023-01-05T02:47:25.230Z,36.50
2023-01-05T02:50:01.406Z,36.13
2023-01-05T02:52:40.845Z,34.92
2023-01-05T02:55:13.869Z,32.53
2023-01-05T02:58:07.847Z,34.05
2023-01-05T03:00:43.129Z,34.53
2023-01-05T03:03:21.170Z,31.60
2023-01-05T03:06:27.103Z,34.50
2023-01-05T03:09:00.989Z,33.75
2023-01-05T03:12:16.058Z,31.88
2023-01-05T03:14:52.974Z,34.75
2023-01-05T03:17:40.459Z,31.40
2023-01-05T03:20:09.776Z,32.03
2023-01-05T03:22:58.183Z,34.88
2023-01-05T03:25:46.561Z,36.08
2023-01-05T03:28:39.748Z,32.92
2023-01-05T03:31:40.409Z,35.33
2023-01-05T03:34:35.463Z,33.05
2023-01-05T03:37:08.152Z,31.20
2023-01-05T03:39:40.639Z,34.25
2023-01-05T03:42:10.857Z,36.70
2023-01-05T03:44:40.697Z,32.55
2023-01-05T03:47:13.295Z,34.65
2023-01-05T03:49:41.094Z,32.25
2023-01-05T03:52:09.823Z,33.63
2023-01-05T03:54:40.848Z,34.13
2023-01-05T03:57:08.840Z,33.80
2023-01-05T03:59:36.438Z,35.08
2023-01-05T04:02:04.944Z,37.17
2023-01-05T04:04:33.417Z,35.40
2023-01-05T04:07:03.332Z,38.13
2023-01-05T04:09:34.065Z,34.10
2023-01-05T04:12:02.417Z,32.72
2023-01-05T04:14:34.416Z,39.53
2023-01-05T04:17:01.992Z,34.75
2023-01-05T04:19:29.575Z,34.80
2023-01-05T04:21:57.622Z,35.10
2023-01-05T04:24:26.177Z,36.88
2023-01-05T04:26:53.755Z,34.60
2023-01-05T04:29:25.308Z,34.97
2023-01-05T04:31:55.668Z,37.47
2023-01-05T04:34:23.303Z,34.10
2023-01-05T04:36:54.611Z,36.53
2023-01-05T04:39:23.270Z,39.50
2023-01-05T04:41:51.538Z,38.22
2023-01-05T04:44:20.977Z,36.50
2023-01-05T04:46:50.013Z,37.92
2023-01-05T04:49:18.632Z,33.42
2023-01-05T04:51:49.441Z,32.70
2023-01-05T04:54:17.343Z,33.65
2023-01-05T04:57:04.380Z,34.45
2023-01-05T04:59:32.083Z,34.72
2023-01-05T05:02:05.141Z,33.10
2023-01-05T05:04:34.341Z,31.30
2023-01-05T05:07:04.143Z,33.72
2023-01-05T05:09:33.373Z,34.03
2023-01-05T05:12:01.311Z,29.73
2023-01-05T05:14:29.103Z,24.60
2023-01-05T05:16:59.857Z,23.85
2023-01-05T05:19:29.880Z,23.40
2023-01-05T05:21:59.262Z,22.60
2023-01-05T05:24:27.765Z,21.63
2023-01-05T05:26:57.275Z,20.17
2023-01-05T05:29:25.212Z,22.00
2023-01-05T05:31:52.831Z,21.30
2023-01-05T05:34:20.468Z,24.05
2023-01-05T05:36:48.171Z,24.15
2023-01-05T05:39:16.474Z,26.77
2023-01-05T05:41:44.002Z,22.65
2023-01-05T05:44:11.586Z,22.38
2023-01-05T05:46:39.257Z,23.90
2023-01-05T05:49:08.767Z,22.83
2023-01-05T05:51:36.386Z,25.25
2023-01-05T05:54:04.107Z,29.77
2023-01-05T05:56:31.656Z,30.08
2023-01-05T05:59:01.575Z,34.72
2023-01-05T06:01:29.650Z,35.20
2023-01-05T06:03:57.457Z,30.58
2023-01-05T06:06:25.151Z,28.58
2023-01-05T06:08:52.699Z,30.73
2023-01-05T06:11:20.283Z,28.45
2023-01-05T06:13:48.947Z,26.25
2023-01-05T06:16:16.737Z,26.30
2023-01-05T06:18:44.407Z,27.85
2023-01-05T06:21:12.031Z,26.27
2023-01-05T06:23:39.524Z,26.65
2023-01-05T06:26:07.233Z,27.77
2023-01-05T06:28:34.818Z,24.95
2023-01-05T06:31:02.414Z,27.42
2023-01-05T06:33:30.022Z,28.60
2023-01-05T06:35:58.961Z,26.85
2023-01-05T06:38:27.920Z,28.83
2023-01-05T06:40:55.628Z,29.38
2023-01-05T06:43:23.189Z,31.23
2023-01-05T06:45:50.929Z,29.13
2023-01-05T06:48:19.015Z,29.30
2023-01-05T06:50:46.574Z,28.48
2023-01-05T06:53:15.684Z,28.80
2023-01-05T06:55:44.720Z,31.00
2023-01-05T06:58:12.291Z,30.67
2023-01-05T07:00:40.046Z,27.95
2023-01-05T07:03:07.884Z,29.42
2023-01-05T07:05:35.611Z,31.33
2023-01-05T07:08:03.118Z,30.50
2023-01-05T07:10:30.758Z,28.50
2023-01-05T07:12:58.336Z,30.00
2023-01-05T07:15:26.055Z,29.77
2023-01-05T07:17:53.735Z,30.85
2023-01-05T07:20:21.269Z,30.05
2023-01-05T07:22:48.856Z,27.77
2023-01-05T07:25:16.392Z,30.10
2023-01-05T07:27:44.028Z,29.48
2023-01-05T07:30:12.257Z,30.77
2023-01-05T07:32:39.889Z,28.27
2023-01-05T07:35:07.812Z,26.25
2023-01-05T07:37:35.377Z,27.08
2023-01-05T07:40:03.161Z,24.33
2023-01-05T07:42:30.840Z,24.42
2023-01-05T07:44:58.374Z,25.20
2023-01-05T07:47:25.831Z,23.05
2023-01-05T07:49:53.372Z,24.75
2023-01-05T07:52:20.916Z,26.05
2023-01-05T07:54:48.674Z,27.08
2023-01-05T07:57:16.285Z,23.13
2023-01-05T07:59:43.737Z,21.60
2023-01-05T08:02:11.489Z,22.90
2023-01-05T08:04:39.282Z,22.25
2023-01-05T08:07:11.566Z,21.23
2023-01-05T08:09:57.521Z,22.00
2023-01-05T08:12:25.093Z,24.15
2023-01-05T08:14:52.652Z,22.20
2023-01-05T08:17:20.212Z,24.38
2023-01-05T08:19:47.924Z,23.55
2023-01-05T08:22:15.435Z,20.17
2023-01-05T08:24:43.027Z,24.77
2023-01-05T08:27:10.701Z,22.55
2023-01-05T08:29:38.244Z,22.10
2023-01-05T08:32:06.019Z,20.75
2023-01-05T08:34:35.089Z,22.52
2023-01-05T08:37:02.861Z,25.40
2023-01-05T08:39:30.341Z,27.80
2023-01-05T08:42:02.524Z,25.27
2023-01-05T08:44:30.755Z,27.55
2023-01-05T08:46:58.336Z,25.80
2023-01-05T08:49:25.870Z,28.13
2023-01-05T08:51:53.357Z,25.48
2023-01-05T08:54:20.952Z,26.38
2023-01-05T08:56:50.740Z,26.05
2023-01-05T08:59:18.880Z,28.60
2023-01-05T09:01:46.618Z,27.00
2023-01-05T09:04:14.273Z,26.45
2023-01-05T09:06:41.764Z,25.88
2023-01-05T09:09:09.278Z,27.83
2023-01-05T09:11:36.893Z,25.10
2023-01-05T09:14:04.363Z,26.38
2023-01-05T09:17:06.482Z,23.55
2023-01-05T09:19:23.057Z,26.40
2023-01-05T09:21:52.223Z,24.50
2023-01-05T09:24:19.959Z,26.92
2023-01-05T09:26:47.788Z,24.42
2023-01-05T09:29:15.423Z,27.02
2023-01-05T09:31:43.731Z,24.85
2023-01-05T09:34:11.546Z,25.38
2023-01-05T09:36:39.145Z,26.85
2023-01-05T09:39:06.747Z,32.00
2023-01-05T09:41:41.887Z,29.77
2023-01-05T09:44:21.989Z,26.83
2023-01-05T09:46:51.862Z,29.83
2023-01-05T09:49:23.346Z,33.08
2023-01-05T09:51:56.138Z,33.17
2023-01-05T09:54:27.960Z,36.90
2023-01-05T09:57:09.201Z,45.15
2023-01-05T09:59:41.414Z,42.10
2023-01-05T10:02:37.970Z,43.20
2023-01-05T10:05:06.863Z,41.95
2023-01-05T10:07:45.808Z,46.20
2023-01-05T10:10:43.529Z,47.85
2023-01-05T10:13:25.090Z,44.10
2023-01-05T10:15:54.905Z,42.78
2023-01-05T10:18:25.600Z,39.92
2023-01-05T10:21:10.931Z,39.53
2023-01-05T10:23:46.626Z,37.58
2023-01-05T10:26:51.088Z,38.38
2023-01-05T10:29:27.423Z,36.45
2023-01-05T10:34:49.281Z,38.75
2023-01-05T10:37:34.485Z,35.80
2023-01-05T10:40:29.651Z,35.05
2023-01-05T10:43:18.795Z,35.15
2023-01-05T10:46:19.829Z,35.55
2023-01-05T10:48:35.706Z,36.53
2023-01-05T10:51:04.769Z,39.85
2023-01-05T10:53:39.268Z,37.50
2023-01-05T10:56:10.749Z,39.30
2023-01-05T10:58:41.680Z,37.63
2023-01-05T11:01:19.568Z,35.03
2023-01-05T11:06:37.789Z,38.65
2023-01-05T11:09:22.621Z,34.97
2023-01-05T11:12:03.383Z,34.30
2023-01-05T11:14:36.024Z,30.80
2023-01-05T11:17:06.406Z,34.90
2023-01-05T11:19:41.440Z,34.88
2023-01-05T11:22:35.926Z,33.40
2023-01-05T11:25:32.378Z,34.53
2023-01-05T11:28:11.890Z,34.45
2023-01-05T11:30:57.687Z,33.80
2023-01-05T11:35:58.750Z,32.72
2023-01-05T11:38:31.221Z,32.90
2023-01-05T11:41:00.828Z,38.08
2023-01-05T11:43:31.776Z,33.67
2023-01-05T11:46:08.020Z,37.88
2023-01-05T11:48:36.327Z,35.58
2023-01-05T11:51:04.025Z,33.33
2023-01-05T11:53:34.333Z,34.53
2023-01-05T11:56:06.454Z,32.28
2023-01-05T11:58:44.370Z,34.33
2023-01-05T12:01:25.602Z,32.38
2023-01-05T12:04:17.656Z,31.65
2023-01-05T12:07:06.651Z,34.30
2023-01-05T12:12:06.321Z,29.77
2023-01-05T12:14:55.932Z,30.88
2023-01-05T12:17:37.259Z,32.25
2023-01-05T12:20:32.342Z,30.77
2023-01-05T12:23:19.366Z,31.08
2023-01-05T12:26:13.504Z,32.03
2023-01-05T12:28:57.938Z,32.33
2023-01-05T12:35:12.527Z,32.28
2023-01-05T12:37:49.106Z,32.78
2023-01-05T12:40:37.272Z,30.88
2023-01-05T12:43:09.593Z,30.25
2023-01-05T12:45:37.069Z,30.40
2023-01-05T12:48:18.736Z,30.65
2023-01-05T12:51:12.243Z,31.45
2023-01-05T12:53:44.680Z,31.85
2023-01-05T12:56:29.670Z,32.00
2023-01-05T12:59:29.240Z,31.53
2023-01-05T13:02:39.393Z,30.33
2023-01-05T13:05:22.358Z,29.52
2023-01-05T13:07:59.045Z,32.50
2023-01-05T13:10:33.057Z,34.20
2023-01-05T13:13:06.056Z,29.25
2023-01-05T13:15:42.137Z,30.42
2023-01-05T13:18:17.990Z,30.75
2023-01-05T13:20:55.867Z,32.00
2023-01-05T13:23:29.832Z,28.88
2023-01-05T13:26:06.402Z,31.10
2023-01-05T13:28:35.055Z,27.55
2023-01-05T13:31:21.025Z,28.33
2023-01-05T13:36:57.903Z,29.80
2023-01-05T13:40:09.755Z,30.75
2023-01-05T13:43:19.376Z,26.13
2023-01-05T13:45:56.049Z,25.95
2023-01-05T13:49:04.128Z,29.13
2023-01-05T13:51:53.250Z,28.23
2023-01-05T13:54:59.771Z,29.42
2023-01-05T13:57:38.506Z,29.55
2023-01-05T14:00:29.229Z,30.88
2023-01-05T14:03:08.317Z,30.30
2023-01-05T14:05:52.820Z,31.05
2023-01-05T14:08:28.144Z,28.80
2023-01-05T14:11:09.377Z,27.52
2023-01-05T14:14:24.525Z,32.65
2023-01-05T14:16:53.188Z,29.75
2023-01-05T14:22:18.826Z,30.60
2023-01-05T14:24:49.441Z,33.22
2023-01-05T14:27:21.593Z,31.88
2023-01-05T14:32:34.532Z,31.73
2023-01-05T14:35:37.226Z,36.08
2023-01-05T14:38:16.423Z,34.65
2023-01-05T14:40:56.299Z,38.00
2023-01-05T14:43:35.147Z,33.55
2023-01-05T14:46:11.927Z,34.13
2023-01-05T14:48:43.115Z,34.80
2023-01-05T14:51:24.071Z,33.80
2023-01-05T14:53:53.532Z,37.03
2023-01-05T14:56:26.768Z,34.38
2023-01-05T14:59:00.032Z,35.22
2023-01-05T15:01:35.867Z,37.50
2023-01-05T15:04:03.417Z,35.42
2023-01-05T15:06:45.912Z,34.28
2023-01-05T15:09:48.537Z,38.20
2023-01-05T15:12:40.002Z,37.08
2023-01-05T15:15:27.734Z,37.22
2023-01-05T15:18:13.864Z,38.38
2023-01-05T15:21:14.468Z,34.53
2023-01-05T15:23:59.965Z,37.55
2023-01-05T15:26:48.872Z,35.10
2023-01-05T15:29:24.052Z,36.70
2023-01-05T15:31:59.157Z,38.63
2023-01-05T15:34:38.325Z,38.78
2023-01-05T15:37:25.784Z,38.75
2023-01-05T15:39:55.375Z,34.53
2023-01-05T15:42:29.154Z,38.30
2023-01-05T15:44:57.506Z,35.40
2023-01-05T15:47:27.994Z,38.45
2023-01-05T15:50:00.636Z,37.67
2023-01-05T15:52:36.268Z,36.10
2023-01-05T15:55:11.571Z,34.63
2023-01-05T15:57:38.999Z,37.85
2023-01-05T16:00:22.273Z,37.42
2023-01-05T16:02:50.560Z,35.55
2023-01-05T16:05:30.345Z,35.45
2023-01-05T16:08:01.745Z,40.47
2023-01-05T16:10:37.395Z,42.78
2023-01-05T16:13:25.034Z,38.05
2023-01-05T16:15:56.224Z,40.10
2023-01-05T16:18:31.592Z,38.75
2023-01-05T16:21:05.102Z,36.95
2023-01-05T16:24:03.546Z,42.63
2023-01-05T16:26:35.046Z,36.00
2023-01-05T16:29:31.494Z,40.10
2023-01-05T16:31:59.523Z,40.25
2023-01-05T16:34:31.520Z,38.13
2023-01-05T16:37:01.064Z,41.90
2023-01-05T16:39:35.105Z,38.65
2023-01-05T16:42:39.571Z,39.55
2023-01-05T16:45:18.734Z,35.72
2023-01-05T16:47:46.631Z,38.78
2023-01-05T16:50:19.821Z,40.72
2023-01-05T16:52:55.620Z,40.22
2023-01-05T16:55:35.709Z,39.50
2023-01-05T16:58:25.073Z,39.60
2023-01-05T17:00:52.501Z,41.15
2023-01-05T17:03:30.327Z,37.55
2023-01-05T17:06:00.021Z,37.78
2023-01-05T17:08:31.761Z,43.75
2023-01-05T17:11:00.717Z,43.35
2023-01-05T17:13:42.433Z,41.30
2023-01-05T17:16:14.502Z,40.30
2023-01-05T17:18:41.984Z,43.38
2023-01-05T17:21:15.658Z,46.78
2023-01-05T17:23:47.329Z,41.92
2023-01-05T17:26:25.116Z,46.80
2023-01-05T17:28:57.146Z,42.72
2023-01-05T17:31:24.934Z,45.30
2023-01-05T17:33:52.338Z,48.22
2023-01-05T17:36:25.021Z,45.72
2023-01-05T17:38:52.685Z,44.00
2023-01-05T17:41:20.171Z,43.33
2023-01-05T17:43:48.234Z,44.70
2023-01-05T17:46:21.560Z,43.72
2023-01-05T17:48:49.388Z,41.05
2023-01-05T17:51:16.775Z,47.45
2023-01-05T17:53:44.199Z,49.90
2023-01-05T17:56:11.622Z,48.13
2023-01-05T17:58:39.292Z,43.50
2023-01-05T18:01:07.146Z,42.40
2023-01-05T18:03:34.758Z,43.97
2023-01-05T18:06:02.791Z,46.72
2023-01-05T18:08:30.365Z,45.55
2023-01-05T18:11:05.473Z,45.33
2023-01-05T18:13:34.147Z,49.85
2023-01-05T18:16:07.845Z,47.28
2023-01-05T18:18:35.425Z,47.30
2023-01-05T18:21:04.295Z,46.92
2023-01-05T18:23:32.123Z,46.80
2023-01-05T18:26:07.442Z,47.45
2023-01-05T18:28:36.003Z,53.53
2023-01-05T18:31:14.148Z,49.20
2023-01-05T18:33:42.540Z,46.17
2023-01-05T18:36:15.723Z,49.10
2023-01-05T18:38:43.420Z,49.42
2023-01-05T18:41:11.715Z,48.92
2023-01-05T18:43:39.629Z,47.55
2023-01-05T18:46:07.290Z,47.53
2023-01-05T18:48:34.911Z,50.58
2023-01-05T18:51:05.889Z,46.88
2023-01-05T18:53:33.622Z,46.17
2023-01-05T18:56:05.744Z,46.97
2023-01-05T18:58:33.515Z,48.72
2023-01-05T19:01:06.924Z,48.60
2023-01-05T19:03:34.766Z,46.58
2023-01-05T19:06:16.049Z,46.88
2023-01-05T19:08:44.757Z,46.20
2023-01-05T19:11:21.335Z,47.33
2023-01-05T19:13:50.338Z,45.47
2023-01-05T19:16:19.902Z,45.42
2023-01-05T19:18:53.935Z,46.92
2023-01-05T19:21:22.749Z,46.80
2023-01-05T19:23:55.526Z,45.35
2023-01-05T19:26:24.333Z,49.33
2023-01-05T19:29:17.905Z,47.08
2023-01-05T19:31:47.027Z,45.80
2023-01-05T19:34:18.511Z,47.65
2023-01-05T19:36:47.651Z,49.65
2023-01-05T19:39:17.765Z,46.33
2023-01-05T19:41:47.104Z,46.17
2023-01-05T19:44:17.301Z,46.00
2023-01-05T19:46:49.234Z,47.03
2023-01-05T19:49:27.384Z,44.50
2023-01-05T19:51:55.493Z,46.90
2023-01-05T19:54:25.358Z,44.70
2023-01-05T19:56:54.703Z,47.05
2023-01-05T19:59:31.925Z,47.05
2023-01-05T20:02:01.605Z,44.88
2023-01-05T20:04:30.022Z,48.17
2023-01-05T20:06:58.299Z,45.28
2023-01-05T20:09:26.470Z,47.35
2023-01-05T20:11:59.557Z,45.58
2023-01-05T20:14:34.373Z,45.22
2023-01-05T20:17:10.327Z,45.83
2023-01-05T20:19:39.234Z,43.60
2023-01-05T20:22:08.659Z,44.95
2023-01-05T20:24:37.350Z,44.53
2023-01-05T20:27:10.053Z,43.33
2023-01-05T20:29:37.929Z,47.78
2023-01-05T20:32:10.935Z,46.70
2023-01-05T20:34:40.091Z,48.10
2023-01-05T20:37:09.973Z,46.05
2023-01-05T20:39:39.094Z,43.60
2023-01-05T20:42:06.779Z,45.72
2023-01-05T20:44:36.787Z,43.83
2023-01-05T20:47:06.823Z,44.75
2023-01-05T20:49:36.265Z,47.65
2023-01-05T20:52:05.167Z,47.72
2023-01-05T20:54:33.198Z,44.33
2023-01-05T20:57:00.850Z,43.55
2023-01-05T20:59:31.237Z,48.92
2023-01-05T21:02:00.151Z,49.15
2023-01-05T21:04:30.115Z,44.95
2023-01-05T21:07:01.128Z,43.40
2023-01-05T21:09:30.248Z,47.78
2023-01-05T21:12:00.096Z,45.88
2023-01-05T21:14:27.722Z,46.53
2023-01-05T21:16:55.734Z,47.40
2023-01-05T21:19:24.286Z,48.00
2023-01-05T21:21:54.634Z,48.10
2023-01-05T21:24:22.917Z,46.00
2023-01-05T21:26:50.983Z,48.08
2023-01-05T21:29:22.605Z,54.05
2023-01-05T21:31:51.506Z,49.13
2023-01-05T21:34:19.295Z,48.50
2023-01-05T21:36:49.037Z,45.38
2023-01-05T21:39:21.611Z,44.75
2023-01-05T21:42:09.899Z,47.05
2023-01-05T21:44:38.028Z,46.80
2023-01-05T21:47:06.843Z,44.97
2023-01-05T21:49:35.755Z,47.45
2023-01-05T21:52:23.202Z,49.30
2023-01-05T21:55:09.584Z,44.92
2023-01-05T21:57:37.230Z,49.40
2023-01-05T22:00:06.096Z,54.53
2023-01-05T22:02:36.794Z,52.20
2023-01-05T22:05:04.807Z,46.45
2023-01-05T22:07:32.392Z,49.70
2023-01-05T22:10:00.049Z,52.88
2023-01-05T22:12:27.848Z,50.25
2023-01-05T22:14:55.656Z,48.85
2023-01-05T22:17:23.290Z,43.25
2023-01-05T22:19:53.426Z,45.65
2023-01-05T22:22:22.207Z,45.53
2023-01-05T22:24:49.935Z,44.45
2023-01-05T22:27:17.557Z,45.17
2023-01-05T22:29:45.016Z,43.90
2023-01-05T22:32:12.548Z,44.90
2023-01-05T22:34:43.903Z,43.35
2023-01-05T22:37:11.685Z,43.83
2023-01-05T22:39:39.258Z,45.85
2023-01-05T22:42:07.055Z,45.53
2023-01-05T22:44:34.771Z,42.05
2023-01-05T22:47:02.384Z,48.55
2023-01-05T22:49:30.744Z,45.92
2023-01-05T22:51:58.215Z,46.35
2023-01-05T22:54:25.994Z,45.00
2023-01-05T22:56:53.571Z,46.05
2023-01-05T22:59:21.796Z,45.00
2023-01-05T23:01:49.937Z,45.13
2023-01-05T23:04:17.597Z,45.33
2023-01-05T23:06:45.097Z,42.30
2023-01-05T23:09:15.272Z,43.38
2023-01-05T23:11:46.368Z,42.90
2023-01-05T23:14:15.153Z,45.85
2023-01-05T23:16:42.795Z,46.47
2023-01-05T23:19:12.158Z,43.67
2023-01-05T23:21:39.700Z,43.45
2023-01-05T23:24:07.700Z,44.95
2023-01-05T23:26:35.252Z,41.35
2023-01-05T23:29:11.894Z,46.65
2023-01-05T23:31:39.383Z,47.72
2023-01-05T23:34:06.910Z,45.20
2023-01-05T23:36:34.394Z,46.83
2023-01-05T23:39:02.041Z,47.65
2023-01-05T23:41:29.672Z,47.00
2023-01-05T23:43:57.250Z,43.88
2023-01-05T23:46:24.952Z,45.03
2023-01-05T23:48:53.004Z,46.03
2023-01-05T23:51:21.069Z,47.75
2023-01-05T23:53:51.215Z,44.17
2023-01-05T23:56:30.752Z,43.50
2023-01-05T23:59:05.611Z,46.33
